Time;durP1;ratioP1;P1;durP2;ratioP2;P2;SDS_P1;SDS_P2;PMS_P1;PMS_P2;Temp;Humidity;BMP_temperature;BMP_pressure;BME280_temperature;BME280_humidity;BME280_pressure;Samples;Min_cycle;Max_cycle;Signal;HPM_P1;HPM_P2
2023/03/18 00:03:24;;;;;;;13.38;4.90;;;;;;;9.81;100.00;100602.31;10444654;28;20481;-76
2023/03/18 00:08:26;;;;;;;10.93;5.68;;;;;;;9.69;100.00;100597.41;10439580;28;20067;-75
2023/03/18 00:13:26;;;;;;;14.70;4.87;;;;;;;9.72;100.00;100600.19;10458921;28;20064;-76
2023/03/18 00:18:27;;;;;;;7.97;4.80;;;;;;;9.72;100.00;100581.88;10404339;28;20484;-76
2023/03/18 00:23:28;;;;;;;7.40;4.43;;;;;;;9.76;100.00;100588.13;10413453;28;20386;-75
2023/03/18 00:28:30;;;;;;;8.38;4.10;;;;;;;9.85;100.00;100588.56;10513573;28;20037;-75
2023/03/18 00:33:30;;;;;;;10.27;4.43;;;;;;;10.01;100.00;100600.63;10406474;28;20469;-76
2023/03/18 00:38:31;;;;;;;13.45;7.93;;;;;;;10.11;100.00;100612.38;10456321;28;20106;-76
2023/03/18 00:43:34;;;;;;;12.05;5.40;;;;;;;10.26;100.00;100605.22;10475446;28;20036;-76
2023/03/18 00:48:35;;;;;;;10.40;5.10;;;;;;;10.26;100.00;100628.78;10449738;28;20495;-76
2023/03/18 00:53:35;;;;;;;9.52;5.47;;;;;;;10.29;100.00;100649.84;10465337;28;20085;-76
2023/03/18 00:58:36;;;;;;;16.33;6.45;;;;;;;10.40;100.00;100650.38;10498054;28;20052;-76
2023/03/18 01:03:38;;;;;;;10.52;6.60;;;;;;;10.01;100.00;100657.25;10442780;28;20122;-76
2023/03/18 01:08:38;;;;;;;18.63;7.20;;;;;;;9.72;100.00;100648.91;10494891;28;20033;-74
2023/03/18 01:13:39;;;;;;;12.43;7.40;;;;;;;9.50;100.00;100647.88;10460319;28;20033;-74
2023/03/18 01:18:40;;;;;;;15.40;9.45;;;;;;;9.34;100.00;100635.81;10476184;28;20041;-75
2023/03/18 01:23:41;;;;;;;17.75;10.85;;;;;;;9.19;100.00;100638.56;10388771;28;20440;-75
2023/03/18 01:28:41;;;;;;;18.77;10.75;;;;;;;9.15;100.00;100657.50;10438625;28;20037;-75
2023/03/18 01:33:42;;;;;;;17.80;10.35;;;;;;;9.21;100.00;100663.94;10452596;28;20373;-75
2023/03/18 01:38:42;;;;;;;18.10;11.18;;;;;;;9.16;100.00;100665.41;10480893;28;20119;-75
2023/03/18 01:43:43;;;;;;;20.13;11.98;;;;;;;9.04;100.00;100670.03;10429106;28;20048;-75
2023/03/18 01:48:43;;;;;;;25.05;13.00;;;;;;;8.82;100.00;100675.03;10446052;28;20046;-75
2023/03/18 01:53:46;;;;;;;27.70;13.57;;;;;;;8.71;100.00;100675.31;10429633;28;20128;-75
2023/03/18 01:58:48;;;;;;;24.05;13.93;;;;;;;8.69;100.00;100679.53;10440517;28;20450;-75
2023/03/18 02:03:49;;;;;;;22.15;12.85;;;;;;;8.66;100.00;100686.41;10413097;28;20065;-75
2023/03/18 02:08:49;;;;;;;21.45;14.30;;;;;;;8.66;100.00;100688.09;10476774;28;20135;-75
2023/03/18 02:13:51;;;;;;;24.35;13.30;;;;;;;8.66;100.00;100685.50;10446445;28;20068;-75
2023/03/18 02:18:54;;;;;;;17.90;11.50;;;;;;;8.69;100.00;100679.53;10441160;28;20091;-75
2023/03/18 02:24:16;;;;;;;27.55;14.27;;;;;;;8.66;100.00;100673.34;10393737;28;20081;-75
2023/03/18 02:29:17;;;;;;;23.33;15.27;;;;;;;8.77;100.00;100680.84;10454833;28;20107;-75
2023/03/18 02:34:17;;;;;;;31.20;15.60;;;;;;;8.78;100.00;100683.50;10449705;28;20052;-75
2023/03/18 02:39:18;;;;;;;30.90;17.30;;;;;;;8.83;100.00;100675.94;10461463;28;20037;-75
2023/03/18 02:44:18;;;;;;;21.27;15.98;;;;;;;8.84;100.00;100674.22;10441160;28;20118;-75
2023/03/18 02:49:19;;;;;;;23.10;14.45;;;;;;;8.74;100.00;100668.53;10452116;28;20109;-75
2023/03/18 02:54:25;;;;;;;22.27;14.02;;;;;;;8.72;100.00;100675.38;10446225;28;20511;-75
2023/03/18 02:59:26;;;;;;;32.97;19.05;;;;;;;8.81;100.00;100680.19;10461309;28;20040;-75
2023/03/18 03:04:26;;;;;;;27.17;17.48;;;;;;;8.88;100.00;100681.38;10448710;28;20052;-76
2023/03/18 03:09:27;;;;;;;26.38;15.00;;;;;;;8.91;100.00;100674.63;10453713;28;20033;-75
2023/03/18 03:14:28;;;;;;;21.15;14.93;;;;;;;8.93;100.00;100680.81;10481982;28;20032;-75
2023/03/18 03:19:29;;;;;;;30.42;17.73;;;;;;;8.98;100.00;100681.03;10485698;28;20039;-75
2023/03/18 03:24:30;;;;;;;28.92;16.25;;;;;;;9.09;100.00;100687.69;10435554;28;20061;-76
2023/03/18 03:29:30;;;;;;;24.92;14.55;;;;;;;9.12;100.00;100689.59;10468798;28;20120;-76
2023/03/18 03:34:31;;;;;;;23.40;14.23;;;;;;;9.18;100.00;100695.13;10450777;28;20038;-74
2023/03/18 03:39:31;;;;;;;21.33;15.07;;;;;;;9.06;100.00;100697.09;10443391;28;20091;-75
2023/03/18 03:44:32;;;;;;;22.58;16.55;;;;;;;9.04;100.00;100699.63;10436880;28;20034;-74
2023/03/18 03:49:32;;;;;;;27.17;17.88;;;;;;;9.04;100.00;100707.44;10443433;28;20120;-75
2023/03/18 03:54:33;;;;;;;27.13;19.20;;;;;;;8.99;100.00;100701.09;10473921;28;20127;-75
2023/03/18 03:59:33;;;;;;;36.58;19.13;;;;;;;8.99;100.00;100708.06;10451506;28;20043;-75
2023/03/18 04:04:34;;;;;;;31.58;20.85;;;;;;;8.93;100.00;100708.63;10425867;28;20128;-75
2023/03/18 04:09:36;;;;;;;32.53;21.73;;;;;;;8.86;100.00;100723.06;10456973;28;20052;-74
2023/03/18 04:14:38;;;;;;;38.60;21.40;;;;;;;8.85;100.00;100728.19;10434846;28;20492;-73
2023/03/18 04:19:38;;;;;;;39.63;22.58;;;;;;;8.83;100.00;100730.75;10423885;28;20037;-75
2023/03/18 04:24:39;;;;;;;33.00;22.50;;;;;;;8.84;100.00;100737.75;10440011;28;20048;-74
2023/03/18 04:29:39;;;;;;;43.50;23.08;;;;;;;8.88;100.00;100733.59;10456919;28;20123;-74
2023/03/18 04:34:40;;;;;;;31.05;21.83;;;;;;;8.92;100.00;100739.06;10450488;28;20060;-76
2023/03/18 04:39:41;;;;;;;38.95;23.30;;;;;;;8.86;100.00;100740.44;10440183;28;20413;-74
2023/03/18 04:44:41;;;;;;;36.30;23.00;;;;;;;8.85;100.00;100747.38;10439918;28;20058;-74
2023/03/18 04:49:42;;;;;;;35.15;22.02;;;;;;;8.82;100.00;100752.44;10399631;28;20511;-74
2023/03/18 04:54:43;;;;;;;31.45;21.48;;;;;;;8.96;100.00;100758.38;10399289;28;20488;-74
2023/03/18 04:59:44;;;;;;;37.00;21.90;;;;;;;8.88;100.00;100750.16;10425839;28;20072;-74
2023/03/18 05:04:44;;;;;;;27.25;18.27;;;;;;;8.85;100.00;100756.91;10441162;28;20112;-74
2023/03/18 05:09:46;;;;;;;30.42;21.45;;;;;;;8.73;100.00;100749.34;10448707;28;20049;-74
2023/03/18 05:14:46;;;;;;;23.07;14.30;;;;;;;8.57;100.00;100750.22;10421145;28;20044;-74
2023/03/18 05:19:47;;;;;;;31.60;17.45;;;;;;;8.39;100.00;100756.19;10441800;28;20405;-74
2023/03/18 05:24:48;;;;;;;28.98;18.88;;;;;;;8.13;100.00;100758.25;10438640;28;20178;-74
2023/03/18 05:29:49;;;;;;;31.92;18.75;;;;;;;7.94;100.00;100767.66;10421467;28;20041;-74
2023/03/18 05:34:49;;;;;;;30.65;17.45;;;;;;;7.68;100.00;100765.25;10431180;28;20123;-74
2023/03/18 05:39:54;;;;;;;24.70;18.52;;;;;;;7.46;100.00;100764.94;10435639;28;20066;-74
2023/03/18 05:45:15;;;;;;;34.15;21.73;;;;;;;7.48;100.00;100767.59;10432641;28;20531;-74
2023/03/18 05:50:28;;;;;;;42.40;24.13;;;;;;;7.55;100.00;100766.28;10421722;28;20037;-74
2023/03/18 05:55:29;;;;;;;37.85;25.30;;;;;;;7.62;100.00;100781.47;10388093;28;20135;-74
2023/03/18 06:00:30;;;;;;;48.13;23.48;;;;;;;7.64;100.00;100787.66;10422565;28;20400;-75
2023/03/18 06:05:30;;;;;;;39.42;24.98;;;;;;;7.70;100.00;100785.41;10458418;28;20638;-75
2023/03/18 06:10:31;;;;;;;43.45;26.20;;;;;;;7.76;100.00;100779.63;10420728;28;20039;-75
2023/03/18 06:15:32;;;;;;;36.05;24.45;;;;;;;7.82;100.00;100792.13;10413665;28;20124;-75
2023/03/18 06:20:32;;;;;;;35.63;22.48;;;;;;;7.83;100.00;100788.72;10422998;28;20044;-76
2023/03/18 06:25:33;;;;;;;32.72;22.55;;;;;;;7.84;100.00;100793.13;10436632;28;20073;-76
2023/03/18 06:30:33;;;;;;;36.95;22.95;;;;;;;7.88;100.00;100790.75;10440890;28;20123;-75
2023/03/18 06:35:34;;;;;;;36.83;23.15;;;;;;;8.03;100.00;100795.06;10420008;28;20033;-76
2023/03/18 06:40:34;;;;;;;33.17;23.77;;;;;;;8.56;100.00;100792.78;10389887;28;20041;-76
2023/03/18 06:45:35;;;;;;;40.70;21.40;;;;;;;8.96;100.00;100781.88;10462345;28;20056;-76
2023/03/18 06:50:38;;;;;;;32.88;14.30;;;;;;;9.17;100.00;100784.72;10413350;28;20045;-75
2023/03/18 06:55:38;;;;;;;19.23;13.88;;;;;;;9.35;100.00;100791.72;10444402;28;20033;-75
2023/03/18 07:00:41;;;;;;;19.75;13.45;;;;;;;9.21;100.00;100804.03;10422578;28;20115;-75
2023/03/18 07:05:41;;;;;;;;;;;;;;;9.61;100.00;100807.81;10447023;28;20396;-76
2023/03/18 07:10:41;;;;;;;16.60;11.07;;;;;;;11.04;100.00;100811.97;10474594;28;19926;-76
2023/03/18 07:15:42;;;;;;;13.35;7.68;;;;;;;12.09;100.00;100794.56;10414223;28;20674;-76
2023/03/18 07:20:42;;;;;;;15.15;7.32;;;;;;;13.18;100.00;100768.03;10455720;28;20037;-75
2023/03/18 07:25:43;;;;;;;10.18;5.95;;;;;;;13.72;100.00;100782.16;10456919;28;20063;-75
2023/03/18 07:30:44;;;;;;;8.25;5.78;;;;;;;13.75;100.00;100787.50;10441322;28;20059;-75
2023/03/18 07:35:45;;;;;;;11.57;7.53;;;;;;;13.34;100.00;100790.47;10408475;28;20650;-74
2023/03/18 07:40:45;;;;;;;7.53;5.60;;;;;;;13.74;100.00;100780.47;10431620;28;20029;-76
2023/03/18 07:45:46;;;;;;;10.55;5.90;;;;;;;13.32;100.00;100789.50;10454347;28;20201;-77
2023/03/18 07:50:46;;;;;;;8.63;4.95;;;;;;;14.21;100.00;100796.00;10452052;28;20591;-76
2023/03/18 07:55:47;;;;;;;13.77;5.82;;;;;;;15.08;100.00;100795.94;10466047;28;20182;-76
2023/03/18 08:00:48;;;;;;;9.02;4.82;;;;;;;16.10;100.00;100806.53;10456293;28;20048;-76
2023/03/18 08:05:48;;;;;;;9.40;5.00;;;;;;;15.43;100.00;100801.31;10457831;28;20055;-77
2023/03/18 08:10:50;;;;;;;7.97;5.10;;;;;;;14.48;100.00;100808.22;10463143;28;20124;-76
2023/03/18 08:15:50;;;;;;;8.88;5.40;;;;;;;13.69;100.00;100816.25;10465111;28;20492;-76
2023/03/18 08:20:51;;;;;;;8.88;5.95;;;;;;;13.17;100.00;100822.28;10460459;28;20123;-77
2023/03/18 08:25:52;;;;;;;6.63;4.10;;;;;;;12.76;100.00;100814.69;10467468;28;20132;-77
2023/03/18 08:30:56;;;;;;;9.25;4.60;;;;;;;12.61;100.00;100820.22;10444019;28;20451;-76
2023/03/18 08:35:58;;;;;;;8.48;4.13;;;;;;;12.40;100.00;100825.56;10449829;28;20033;-77
2023/03/18 08:40:58;;;;;;;6.37;4.03;;;;;;;12.36;100.00;100842.00;10422314;28;20041;-77
2023/03/18 08:45:59;;;;;;;9.38;5.57;;;;;;;12.45;100.00;100831.88;10480676;28;20267;-77
2023/03/18 08:51:07;;;;;;;11.55;6.22;;;;;;;12.76;100.00;100842.66;10466473;28;20076;-77
2023/03/18 08:56:07;;;;;;;9.15;5.45;;;;;;;12.88;100.00;100845.75;10440871;28;20106;-77
2023/03/18 09:01:08;;;;;;;9.77;4.50;;;;;;;12.99;100.00;100846.19;10440944;28;20078;-77
2023/03/18 09:06:08;;;;;;;7.68;5.63;;;;;;;13.12;100.00;100847.50;10405922;28;20042;-76
2023/03/18 09:11:09;;;;;;;7.75;4.38;;;;;;;13.61;100.00;100842.25;10467025;28;20128;-77
2023/03/18 09:16:10;;;;;;;6.20;5.28;;;;;;;14.21;100.00;100830.22;10443057;28;20056;-77
2023/03/18 09:21:11;;;;;;;6.57;3.95;;;;;;;14.42;100.00;100839.63;10425531;28;20373;-77
2023/03/18 09:26:11;;;;;;;9.93;4.80;;;;;;;15.08;100.00;100838.13;10456151;28;20117;-77
2023/03/18 09:31:12;;;;;;;6.72;3.70;;;;;;;15.09;100.00;100838.19;10450310;28;20041;-77
2023/03/18 09:36:13;;;;;;;8.13;2.92;;;;;;;14.71;100.00;100839.69;10441184;28;20041;-77
2023/03/18 09:42:06;;;;;;;4.30;2.90;;;;;;;15.74;100.00;100836.41;10424659;28;20037;-77
2023/03/18 09:47:34;;;;;;;8.02;3.03;;;;;;;17.99;100.00;100830.63;10364110;28;20588;-77
2023/03/18 09:52:45;;;;;;;4.40;2.40;;;;;;;20.57;99.23;100830.00;10431222;28;20057;-77
2023/03/18 09:57:47;;;;;;;7.47;3.35;;;;;;;21.46;86.59;100836.59;10473236;28;20037;-77
2023/03/18 10:02:52;;;;;;;4.53;3.10;;;;;;;22.66;76.73;100824.16;10422315;28;20033;-77
2023/03/18 10:07:53;;;;;;;4.22;2.50;;;;;;;23.37;68.37;100828.34;10414982;28;20786;-77
2023/03/18 10:13:09;;;;;;;5.53;2.45;;;;;;;23.51;65.69;100828.25;10398815;28;20098;-77
2023/03/18 10:18:12;;;;;;;7.10;2.72;;;;;;;20.64;70.32;100834.47;10399238;28;20049;-77
2023/03/18 10:23:25;;;;;;;4.90;2.45;;;;;;;19.98;81.69;100834.91;10410976;28;20045;-77
2023/03/18 10:28:41;;;;;;;5.40;3.40;;;;;;;20.46;76.93;100811.34;10425358;28;20045;-77
2023/03/18 10:34:00;;;;;;;4.20;2.40;;;;;;;20.65;79.40;100807.00;10436762;28;20041;-77
2023/03/18 10:39:02;;;;;;;5.03;2.47;;;;;;;21.54;75.34;100826.84;10431906;28;20132;-77
2023/03/18 10:44:09;;;;;;;8.88;4.93;;;;;;;22.56;70.79;100826.00;10434702;28;20518;-77
2023/03/18 10:49:19;;;;;;;4.38;2.60;;;;;;;22.57;66.11;100812.63;10424628;28;20036;-76
2023/03/18 10:54:45;;;;;;;3.80;2.67;;;;;;;23.11;67.46;100827.53;10413674;28;20037;-78
2023/03/18 10:59:46;;;;;;;4.38;2.72;;;;;;;23.85;62.20;100828.88;10422041;28;20412;-78
2023/03/18 11:04:50;;;;;;;9.27;3.23;;;;;;;19.93;70.91;100835.75;10447103;28;20060;-77
2023/03/18 11:09:51;;;;;;;4.03;1.88;;;;;;;19.21;77.56;100842.13;10445447;28;20033;-78
2023/03/18 11:14:52;;;;;;;5.22;2.47;;;;;;;17.74;85.25;100824.00;10445961;28;20037;-77
2023/03/18 11:20:10;;;;;;;4.37;2.60;;;;;;;17.19;95.00;100830.06;10447007;28;20112;-78
2023/03/18 11:25:15;;;;;;;5.85;1.77;;;;;;;16.71;100.00;100831.69;10447023;28;20031;-77
2023/03/18 11:30:26;;;;;;;3.55;1.85;;;;;;;16.10;100.00;100835.56;10428012;28;20045;-77
2023/03/18 11:35:46;;;;;;;4.00;1.58;;;;;;;16.04;100.00;100835.41;10485190;28;20469;-76
2023/03/18 11:40:47;;;;;;;8.27;2.47;;;;;;;16.10;100.00;100837.34;10475292;28;20047;-77
2023/03/18 11:45:53;;;;;;;3.05;1.25;;;;;;;16.43;100.00;100826.66;10414150;28;20519;-76
2023/03/18 11:51:21;;;;;;;4.00;1.75;;;;;;;16.47;100.00;100832.00;10420276;28;20041;-77
2023/03/18 11:56:40;;;;;;;5.40;1.98;;;;;;;16.56;100.00;100829.59;10459400;28;20558;-76
2023/03/18 12:01:48;;;;;;;7.35;1.55;;;;;;;16.82;100.00;100830.16;10416804;28;20049;-76
2023/03/18 12:06:55;;;;;;;6.50;1.52;;;;;;;16.69;99.48;100836.94;10433520;28;20382;-76
2023/03/18 12:12:06;;;;;;;3.83;1.45;;;;;;;15.91;100.00;100838.59;10436699;28;20446;-76
2023/03/18 12:17:45;;;;;;;3.50;1.40;;;;;;;15.52;100.00;100842.88;10461252;28;20048;-76
2023/03/18 12:23:31;;;;;;;3.03;1.55;;;;;;;15.25;100.00;100828.94;10409975;28;20040;-75
2023/03/18 12:28:43;;;;;;;2.80;1.10;;;;;;;15.31;100.00;100829.97;10456831;28;20037;-76
2023/03/18 12:33:56;;;;;;;2.97;1.33;;;;;;;15.62;100.00;100841.34;10437386;28;20480;-76
2023/03/18 12:39:05;;;;;;;4.10;1.98;;;;;;;15.65;100.00;100839.69;10477826;28;20090;-76
2023/03/18 12:44:16;;;;;;;5.93;2.03;;;;;;;15.24;100.00;100845.63;10484849;28;20434;-76
2023/03/18 12:49:18;;;;;;;5.30;1.40;;;;;;;14.78;100.00;100844.28;10408281;28;20046;-76
2023/03/18 12:54:22;;;;;;;7.82;2.60;;;;;;;14.17;100.00;100841.47;10462441;28;20400;-76
2023/03/18 12:59:55;;;;;;;2.33;1.30;;;;;;;13.75;100.00;100845.38;10442256;28;20108;-76
2023/03/18 13:05:00;;;;;;;3.00;1.38;;;;;;;13.19;100.00;100839.00;10404858;28;20037;-76
2023/03/18 13:10:20;;;;;;;8.40;2.03;;;;;;;13.05;100.00;100838.53;10417785;28;20489;-76
2023/03/18 13:15:30;;;;;;;3.53;1.75;;;;;;;14.21;100.00;100830.22;10426287;28;20037;-76
2023/03/18 13:20:37;;;;;;;3.10;1.20;;;;;;;15.08;100.00;100832.84;10425714;28;20485;-76
2023/03/18 13:25:41;;;;;;;4.53;1.55;;;;;;;15.47;100.00;100828.66;10440590;28;20037;-75
2023/03/18 13:31:20;;;;;;;3.40;1.27;;;;;;;17.57;100.00;100821.97;10439958;28;20051;-76
2023/03/18 13:36:45;;;;;;;4.35;1.83;;;;;;;19.22;100.00;100812.06;10417680;28;20049;-76
2023/03/18 13:42:05;;;;;;;4.65;1.88;;;;;;;19.12;96.24;100817.22;10410662;28;20396;-76
2023/03/18 13:47:07;;;;;;;7.53;2.28;;;;;;;18.14;100.00;100808.81;10399539;28;20493;-76
2023/03/18 13:52:41;;;;;;;2.55;1.85;;;;;;;18.67;99.06;100798.09;10413726;28;20033;-76
2023/03/18 13:57:46;;;;;;;5.68;2.55;;;;;;;19.97;94.04;100799.50;10438564;28;20057;-76
2023/03/18 14:03:03;;;;;;;3.72;1.73;;;;;;;21.12;78.80;100794.84;10438937;28;20033;-76
2023/03/18 14:08:18;;;;;;;4.07;1.73;;;;;;;19.58;86.66;100785.84;10399915;28;20045;-76
2023/03/18 14:13:25;;;;;;;14.80;2.25;;;;;;;21.87;80.92;100774.53;10397180;28;20093;-77
2023/03/18 14:18:26;;;;;;;4.07;1.85;;;;;;;22.90;69.43;100768.94;10426597;28;20037;-76
2023/03/18 14:23:38;;;;;;;5.80;2.30;;;;;;;23.29;66.89;100769.63;10438410;28;20037;-76
2023/03/18 14:28:48;;;;;;;6.10;2.08;;;;;;;22.61;68.01;100746.84;10422098;28;20120;-77
2023/03/18 14:34:02;;;;;;;10.43;2.60;;;;;;;22.48;68.97;100754.00;10359298;28;1166480;-76
2023/03/18 14:39:05;;;;;;;4.68;1.67;;;;;;;21.04;70.35;100752.22;10465554;28;20037;-77
2023/03/18 14:44:17;;;;;;;4.63;1.95;;;;;;;20.39;76.74;100743.97;10397919;28;20037;-77
2023/03/18 14:50:00;;;;;;;11.88;4.60;;;;;;;21.83;70.91;100748.78;10477488;28;20035;-77
2023/03/18 14:55:04;;;;;;;4.25;2.03;;;;;;;22.71;66.85;100742.34;10451436;28;20471;-77
2023/03/18 15:00:07;;;;;;;7.78;2.47;;;;;;;22.75;66.20;100737.91;10478558;28;20107;-76
2023/03/18 15:05:07;;;;;;;5.20;2.08;;;;;;;21.86;68.20;100738.13;10401023;28;20052;-77
2023/03/18 15:10:11;;;;;;;7.13;2.70;;;;;;;21.58;67.50;100739.88;10414943;28;20049;-77
2023/03/18 15:15:14;;;;;;;5.28;2.03;;;;;;;21.91;69.07;100738.13;10430370;28;20374;-77
2023/03/18 15:20:15;;;;;;;6.05;2.30;;;;;;;21.59;67.27;100733.69;10471969;28;20033;-77
2023/03/18 15:25:19;;;;;;;18.47;10.73;;;;;;;21.66;65.77;100740.81;10437767;28;20041;-76
2023/03/18 15:30:28;;;;;;;6.47;2.55;;;;;;;19.95;67.58;100741.06;10425356;28;20033;-77
2023/03/18 15:35:30;;;;;;;4.43;1.70;;;;;;;18.52;76.22;100741.38;10444879;28;20037;-77
2023/03/18 15:40:32;;;;;;;4.90;2.10;;;;;;;18.92;76.06;100748.91;10450674;28;20044;-78
2023/03/18 15:45:32;;;;;;;5.65;1.73;;;;;;;18.25;77.69;100749.81;10432277;28;20765;-78
2023/03/18 15:50:34;;;;;;;4.28;1.67;;;;;;;17.60;84.53;100752.34;10433613;28;20028;-78
2023/03/18 15:55:46;;;;;;;3.90;1.70;;;;;;;17.49;78.70;100743.31;10479202;28;20037;-77
2023/03/18 16:00:46;;;;;;;;;;;;;;;16.86;79.64;100758.00;10476179;28;20279;-77
2023/03/18 16:05:47;;;;;;;4.30;1.27;;;;;;;16.67;81.37;100740.00;10447477;28;19917;-78
2023/03/18 16:10:48;;;;;;;8.47;1.57;;;;;;;16.55;79.47;100732.69;10446677;28;20375;-77
2023/03/18 16:15:49;;;;;;;1.67;1.13;;;;;;;16.23;80.44;100740.81;10444701;28;20025;-77
2023/03/18 16:20:52;;;;;;;1.00;0.52;;;;;;;15.89;79.58;100745.31;10446548;28;20041;-77
2023/03/18 16:25:54;;;;;;;1.92;0.90;;;;;;;15.34;83.23;100743.03;10425204;28;20053;-84
2023/03/18 16:30:56;;;;;;;4.25;1.00;;;;;;;14.96;86.53;100734.16;10453389;28;20556;-80
2023/03/18 16:35:58;;;;;;;4.53;1.23;;;;;;;14.80;87.69;100739.84;10447565;28;20060;-78
2023/03/18 16:40:58;;;;;;;3.38;0.98;;;;;;;14.49;90.95;100731.03;10421371;28;20564;-77
2023/03/18 16:46:00;;;;;;;7.93;1.50;;;;;;;14.29;93.33;100740.97;10440793;28;20041;-77
2023/03/18 16:51:01;;;;;;;4.13;1.35;;;;;;;13.86;99.47;100751.03;10469827;28;20068;-79
2023/03/18 16:56:07;;;;;;;6.50;2.80;;;;;;;13.39;100.00;100746.84;10421270;28;20131;-79
2023/03/18 17:01:10;;;;;;;4.60;1.30;;;;;;;13.01;100.00;100749.00;10446284;28;20072;-78
2023/03/18 17:06:12;;;;;;;4.60;2.05;;;;;;;12.69;100.00;100748.72;10475408;28;20098;-77
2023/03/18 17:11:16;;;;;;;4.35;2.38;;;;;;;12.48;100.00;100757.59;10429616;28;20033;-78
2023/03/18 17:16:20;;;;;;;7.32;2.28;;;;;;;12.15;100.00;100758.06;10492884;28;20048;-78
2023/03/18 17:21:21;;;;;;;6.28;2.35;;;;;;;11.83;100.00;100761.19;10473810;28;20512;-79
2023/03/18 17:26:23;;;;;;;3.33;2.15;;;;;;;11.56;100.00;100767.06;10460655;28;20072;-79
2023/03/18 17:31:23;;;;;;;3.88;0.98;;;;;;;11.26;100.00;100766.63;10424494;28;20040;-79
2023/03/18 17:36:24;;;;;;;9.15;1.20;;;;;;;10.90;100.00;100767.72;10460933;28;20041;-79
2023/03/18 17:41:27;;;;;;;1.95;0.70;;;;;;;10.55;100.00;100767.91;10437990;28;20462;-79
2023/03/18 17:46:29;;;;;;;2.53;1.30;;;;;;;10.25;100.00;100760.38;10463211;28;20093;-79
2023/03/18 17:51:31;;;;;;;4.30;1.17;;;;;;;9.96;100.00;100764.22;10439060;28;20043;-78
2023/03/18 17:56:34;;;;;;;5.75;1.45;;;;;;;9.76;100.00;100777.22;10473508;28;20131;-78
2023/03/18 18:01:35;;;;;;;4.57;2.00;;;;;;;9.69;100.00;100780.34;10466981;28;20045;-78
2023/03/18 18:06:35;;;;;;;3.50;1.50;;;;;;;9.63;100.00;100788.75;10482567;28;20033;-79
2023/03/18 18:11:42;;;;;;;6.75;3.00;;;;;;;9.51;100.00;100786.44;10513965;28;20060;-79
2023/03/18 18:16:44;;;;;;;6.97;2.00;;;;;;;9.38;100.00;100791.88;10442496;28;20040;-78
2023/03/18 18:21:45;;;;;;;1.40;1.03;;;;;;;9.19;100.00;100790.00;10419486;28;20128;-79
2023/03/18 18:26:45;;;;;;;5.57;1.80;;;;;;;9.11;100.00;100800.06;10413558;28;20034;-81
2023/03/18 18:31:47;;;;;;;6.80;2.13;;;;;;;9.08;100.00;100807.72;10430664;28;20029;-80
2023/03/18 18:36:48;;;;;;;2.38;1.38;;;;;;;9.07;100.00;100806.81;10416257;28;20424;-78
2023/03/18 18:41:49;;;;;;;2.95;1.25;;;;;;;9.05;100.00;100812.78;10438867;28;20123;-79
2023/03/18 18:46:49;;;;;;;3.08;1.30;;;;;;;9.00;100.00;100819.50;10421443;28;20083;-80
2023/03/18 18:51:52;;;;;;;3.72;1.27;;;;;;;8.87;100.00;100823.13;10412893;28;20124;-80
2023/03/18 18:56:52;;;;;;;5.93;1.90;;;;;;;8.77;100.00;100821.75;10430105;28;20041;-80
2023/03/18 19:01:54;;;;;;;8.40;1.45;;;;;;;8.68;100.00;100832.56;10434525;28;20052;-77
2023/03/18 19:06:55;;;;;;;11.98;2.22;;;;;;;8.66;100.00;100839.41;10480147;28;20400;-78
2023/03/18 19:11:55;;;;;;;6.05;1.58;;;;;;;8.61;100.00;100836.56;10430442;28;20039;-80
2023/03/18 19:16:57;;;;;;;6.43;2.75;;;;;;;8.52;100.00;100836.94;10462646;28;20064;-78
2023/03/18 19:21:57;;;;;;;5.10;1.42;;;;;;;8.50;100.00;100838.56;10429711;28;20029;-80
2023/03/18 19:27:00;;;;;;;10.20;3.95;;;;;;;8.48;100.00;100834.94;10439418;28;20540;-78
2023/03/18 19:32:01;;;;;;;3.05;1.60;;;;;;;8.46;100.00;100847.00;10458085;28;20040;-80
2023/03/18 19:37:04;;;;;;;9.27;3.25;;;;;;;8.47;100.00;100843.59;10458497;28;20052;-78
2023/03/18 19:42:15;;;;;;;7.22;1.92;;;;;;;8.60;100.00;100841.69;10439060;28;20559;-79
2023/03/18 19:47:25;;;;;;;5.03;2.05;;;;;;;8.73;100.00;100862.44;10465542;28;20033;-77
2023/03/18 19:52:26;;;;;;;5.07;2.55;;;;;;;8.95;100.00;100887.09;10471539;28;20512;-78
2023/03/18 19:57:28;;;;;;;5.38;2.25;;;;;;;9.65;100.00;100894.28;10388965;28;20060;-78
2023/03/18 20:02:30;;;;;;;6.40;3.45;;;;;;;10.32;100.00;100897.63;10452507;28;23784;-78
2023/03/18 20:07:33;;;;;;;3.90;1.83;;;;;;;10.94;100.00;100911.06;10444151;28;20044;-78
2023/03/18 20:12:35;;;;;;;2.20;1.55;;;;;;;11.14;100.00;100908.47;10485788;28;20036;-79
2023/03/18 20:17:40;;;;;;;3.63;2.30;;;;;;;11.27;100.00;100915.16;10443179;28;20095;-78
2023/03/18 20:22:42;;;;;;;4.38;0.85;;;;;;;11.27;100.00;100908.19;10385040;28;20136;-79
2023/03/18 20:27:43;;;;;;;;;;;;;;;11.20;100.00;100924.47;10432204;28;20038;-79
2023/03/18 20:32:43;;;;;;;4.80;0.98;;;;;;;11.04;100.00;100917.59;10461029;28;20288;-77
2023/03/18 20:37:43;;;;;;;2.78;0.98;;;;;;;10.84;100.00;100924.53;10427643;28;20124;-78
2023/03/18 20:42:44;;;;;;;2.20;1.15;;;;;;;10.75;100.00;100932.84;10450940;28;20094;-77
2023/03/18 20:47:45;;;;;;;1.63;0.90;;;;;;;10.66;100.00;100916.69;10441601;28;20124;-77
2023/03/18 20:52:46;;;;;;;3.17;0.93;;;;;;;10.64;100.00;100910.47;10425441;28;20131;-75
2023/03/18 20:57:47;;;;;;;3.78;0.98;;;;;;;10.65;100.00;100897.50;10443900;28;20044;-77
2023/03/18 21:02:51;;;;;;;1.73;0.45;;;;;;;10.60;100.00;100904.22;10422778;28;20646;-76
2023/03/18 21:07:52;;;;;;;1.60;0.45;;;;;;;10.45;100.00;100917.44;10436591;28;20072;-75
2023/03/18 21:12:52;;;;;;;2.15;0.88;;;;;;;10.26;100.00;100907.78;10429022;28;20038;-74
2023/03/18 21:17:53;;;;;;;2.13;0.60;;;;;;;10.15;100.00;100902.00;10428030;28;20136;-75
2023/03/18 21:22:55;;;;;;;5.40;0.80;;;;;;;10.08;100.00;100899.88;10446548;28;20120;-74
2023/03/18 21:27:56;;;;;;;7.07;2.07;;;;;;;9.94;100.00;100892.25;10440216;28;20052;-74
2023/03/18 21:32:57;;;;;;;1.83;0.67;;;;;;;9.88;100.00;100893.66;10435563;28;20037;-74
2023/03/18 21:37:57;;;;;;;4.20;0.80;;;;;;;9.74;100.00;100893.88;10427152;28;20086;-75
2023/03/18 21:42:58;;;;;;;3.03;0.85;;;;;;;9.67;100.00;100890.03;10416706;28;20120;-75
2023/03/18 21:47:58;;;;;;;2.13;0.60;;;;;;;9.57;100.00;100879.91;10434599;28;20191;-74
2023/03/18 21:52:59;;;;;;;7.35;1.05;;;;;;;9.54;100.00;100878.06;10428712;28;20072;-74
2023/03/18 21:57:59;;;;;;;2.78;0.63;;;;;;;9.54;100.00;100870.22;10432890;28;20061;-74
2023/03/18 22:03:00;;;;;;;2.03;0.82;;;;;;;9.55;100.00;100879.84;10427754;28;20124;-75
2023/03/18 22:08:00;;;;;;;1.90;1.23;;;;;;;9.50;100.00;100886.53;10430070;28;20502;-76
2023/03/18 22:13:01;;;;;;;3.25;1.13;;;;;;;9.44;100.00;100872.25;10408702;28;20172;-74
2023/03/18 22:18:02;;;;;;;1.48;0.98;;;;;;;9.38;100.00;100875.47;10407945;28;20159;-74
2023/03/18 22:23:20;;;;;;;3.33;1.50;;;;;;;9.42;100.00;100928.75;10391002;28;20402;-74
2023/03/18 22:28:21;;;;;;;4.45;1.35;;;;;;;9.75;100.00;100931.34;10432573;28;20034;-75
2023/03/18 22:33:26;;;;;;;2.65;1.38;;;;;;;9.91;100.00;100935.66;10422608;28;20041;-74
2023/03/18 22:38:27;;;;;;;1.55;1.05;;;;;;;9.81;100.00;100942.09;10446394;28;20052;-75
2023/03/18 22:43:33;;;;;;;5.07;1.88;;;;;;;9.58;100.00;100949.63;10476614;28;20370;-75
2023/03/18 22:48:34;;;;;;;4.45;2.40;;;;;;;9.47;100.00;100945.56;10450187;28;20502;-75
2023/03/18 22:53:38;;;;;;;6.63;2.65;;;;;;;9.36;100.00;100945.88;10448424;28;20059;-74
2023/03/18 22:58:39;;;;;;;3.55;1.65;;;;;;;9.22;100.00;100941.63;10450961;28;20539;-75
2023/03/18 23:03:42;;;;;;;4.97;1.70;;;;;;;9.06;100.00;100938.19;10448567;28;20139;-74